createdAt,value
2018-09-12T00:00:47.457Z,85.66
2018-09-12T00:03:16.240Z,86.15
2018-09-12T00:05:44.793Z,86.04
2018-09-12T00:08:13.317Z,86.20
2018-09-12T00:10:41.889Z,87.05
2018-09-12T00:13:10.424Z,85.56
2018-09-12T00:15:39.028Z,86.06
2018-09-12T00:18:07.204Z,84.65
2018-09-12T00:20:35.730Z,85.21
2018-09-12T00:23:04.290Z,86.09
2018-09-12T00:25:32.842Z,85.57
2018-09-12T00:28:01.569Z,85.38
2018-09-12T00:30:30.117Z,86.49
2018-09-12T00:32:58.939Z,86.55
2018-09-12T00:35:27.469Z,87.09
2018-09-12T00:37:56.014Z,91.15
2018-09-12T00:40:24.566Z,91.32
2018-09-12T00:42:53.112Z,91.41
2018-09-12T00:45:21.648Z,90.22
2018-09-12T00:47:50.200Z,90.77
2018-09-12T00:50:18.721Z,89.35
2018-09-12T00:52:47.277Z,89.52
2018-09-12T00:55:15.899Z,90.61
2018-09-12T00:57:44.465Z,91.66
2018-09-12T01:00:13.096Z,90.36
2018-09-12T01:02:41.755Z,92.88
2018-09-12T01:05:10.613Z,91.92
2018-09-12T01:07:39.162Z,91.18
2018-09-12T01:10:07.729Z,91.16
2018-09-12T01:12:36.301Z,90.39
2018-09-12T01:15:04.945Z,90.29
2018-09-12T01:17:33.484Z,90.53
2018-09-12T01:20:02.000Z,92.16
2018-09-12T01:22:30.599Z,91.81
2018-09-12T01:24:59.124Z,90.92
2018-09-12T01:27:28.069Z,91.39
2018-09-12T01:29:56.601Z,89.47
2018-09-12T01:32:25.213Z,89.13
2018-09-12T01:34:53.728Z,89.87
2018-09-12T01:37:22.283Z,90.72
2018-09-12T01:39:50.805Z,90.41
2018-09-12T01:42:19.386Z,90.00
2018-09-12T01:44:48.066Z,89.52
2018-09-12T01:47:16.621Z,89.33
2018-09-12T01:49:45.153Z,90.36
2018-09-12T01:52:13.700Z,90.75
2018-09-12T01:54:42.226Z,90.50
2018-09-12T01:57:10.780Z,91.10
2018-09-12T01:59:39.304Z,91.09
2018-09-12T02:02:07.880Z,92.62
2018-09-12T02:04:36.384Z,91.25
2018-09-12T02:07:04.885Z,91.66
2018-09-12T02:09:33.429Z,91.95
2018-09-12T02:12:01.924Z,91.79
2018-09-12T02:14:30.748Z,91.03
2018-09-12T02:16:59.241Z,92.00
2018-09-12T02:19:27.769Z,91.38
2018-09-12T02:21:56.276Z,91.43
2018-09-12T02:24:24.889Z,91.37
2018-09-12T02:26:53.466Z,91.19
2018-09-12T02:29:22.253Z,90.64
2018-09-12T02:31:50.757Z,91.57
2018-09-12T02:34:19.277Z,91.23
2018-09-12T02:36:47.777Z,90.59
2018-09-12T02:39:16.306Z,91.02
2018-09-12T02:41:44.825Z,90.21
2018-09-12T02:44:13.357Z,90.72
2018-09-12T02:46:41.868Z,90.36
2018-09-12T02:49:10.419Z,91.33
2018-09-12T02:51:38.917Z,90.26
2018-09-12T02:54:07.469Z,91.64
2018-09-12T02:56:36.013Z,91.61
2018-09-12T02:59:04.586Z,90.78
2018-09-12T03:01:33.105Z,91.33
2018-09-12T03:04:01.640Z,91.33
2018-09-12T03:06:30.131Z,92.62
2018-09-12T03:08:58.657Z,91.72
2018-09-12T03:11:27.169Z,92.66
2018-09-12T03:13:56.140Z,91.31
2018-09-12T03:16:24.639Z,91.42
2018-09-12T03:18:53.158Z,92.09
2018-09-12T03:21:21.650Z,91.23
2018-09-12T03:23:50.185Z,91.19
2018-09-12T03:26:18.689Z,91.47
2018-09-12T03:28:47.228Z,91.87
2018-09-12T03:31:16.057Z,92.35
2018-09-12T03:33:44.921Z,92.56
2018-09-12T03:36:13.664Z,91.57
2018-09-12T03:38:42.199Z,91.63
2018-09-12T03:41:10.700Z,91.26
2018-09-12T03:43:39.275Z,92.24
2018-09-12T03:46:08.128Z,92.32
2018-09-12T03:48:36.925Z,92.04
2018-09-12T03:51:05.472Z,92.22
2018-09-12T03:53:33.975Z,92.53
2018-09-12T03:56:02.509Z,91.99
2018-09-12T03:58:31.017Z,92.70
2018-09-12T04:00:59.551Z,92.36
2018-09-12T04:03:28.065Z,93.24
2018-09-12T04:05:56.604Z,93.02
2018-09-12T04:08:25.117Z,92.64
2018-09-12T04:10:53.665Z,92.56
2018-09-12T04:13:22.183Z,93.45
2018-09-12T04:15:50.729Z,93.89
2018-09-12T04:18:19.242Z,92.94
2018-09-12T04:20:47.776Z,93.31
2018-09-12T04:23:16.304Z,93.41
2018-09-12T04:25:46.723Z,93.41
2018-09-12T04:28:15.338Z,92.96
2018-09-12T04:30:43.890Z,93.45
2018-09-12T04:33:12.662Z,93.33
2018-09-12T04:35:41.209Z,92.48
2018-09-12T04:38:09.855Z,92.96
2018-09-12T04:40:38.448Z,93.00
2018-09-12T04:43:07.863Z,92.18
2018-09-12T04:45:36.693Z,92.84
2018-09-12T04:48:05.225Z,92.28
2018-09-12T04:50:33.796Z,92.21
2018-09-12T04:53:02.333Z,93.24
2018-09-12T04:55:31.080Z,92.85
2018-09-12T04:58:00.218Z,93.13
2018-09-12T05:00:29.280Z,93.17
2018-09-12T05:02:57.806Z,93.90
2018-09-12T05:05:26.412Z,93.53
2018-09-12T05:07:54.937Z,92.50
2018-09-12T05:10:23.571Z,92.90
2018-09-12T05:12:52.121Z,92.93
2018-09-12T05:15:20.690Z,92.18
2018-09-12T05:17:49.383Z,91.75
2018-09-12T05:20:19.739Z,93.06
2018-09-12T05:22:48.289Z,92.06
2018-09-12T05:25:16.813Z,91.90
2018-09-12T05:27:45.359Z,92.14
2018-09-12T05:30:13.956Z,92.27
2018-09-12T05:32:42.512Z,91.54
2018-09-12T05:35:11.097Z,90.91
2018-09-12T05:37:39.640Z,91.11
2018-09-12T05:40:08.172Z,90.73
2018-09-12T05:42:37.489Z,92.55
2018-09-12T05:45:06.053Z,93.55
2018-09-12T05:47:34.612Z,92.23
2018-09-12T05:50:03.499Z,90.49
2018-09-12T05:52:32.012Z,91.11
2018-09-12T05:55:00.533Z,91.12
2018-09-12T05:57:29.097Z,91.33
2018-09-12T05:59:57.676Z,91.28
2018-09-12T06:02:26.245Z,90.55
2018-09-12T06:04:54.785Z,90.53
2018-09-12T06:07:23.399Z,89.78
2018-09-12T06:09:51.913Z,89.78
2018-09-12T06:12:23.434Z,89.44
2018-09-12T06:14:51.945Z,89.24
2018-09-12T06:17:20.500Z,89.25
2018-09-12T06:19:49.101Z,88.97
2018-09-12T06:22:17.699Z,89.64
2018-09-12T06:24:46.188Z,89.44
2018-09-12T06:27:14.824Z,88.47
2018-09-12T06:29:43.353Z,88.55
2018-09-12T06:32:12.177Z,88.19
2018-09-12T06:34:40.753Z,87.19
2018-09-12T06:37:09.287Z,86.65
2018-09-12T06:39:37.846Z,87.48
2018-09-12T06:42:06.395Z,86.70
2018-09-12T06:44:35.000Z,87.34
2018-09-12T06:47:03.492Z,85.92
2018-09-12T06:49:32.083Z,85.87
2018-09-12T06:52:00.703Z,85.12
2018-09-12T06:54:29.319Z,85.09
2018-09-12T06:56:57.930Z,85.05
2018-09-12T06:59:26.485Z,86.06
2018-09-12T07:01:55.021Z,85.98
2018-09-12T07:04:23.573Z,85.10
2018-09-12T07:06:52.169Z,84.20
2018-09-12T07:09:20.741Z,84.58
2018-09-12T07:11:49.270Z,83.76
2018-09-12T07:14:17.919Z,84.00
2018-09-12T07:16:46.377Z,82.78
2018-09-12T07:19:14.940Z,82.01
2018-09-12T07:21:43.472Z,81.75
2018-09-12T07:24:12.013Z,81.55
2018-09-12T07:26:40.539Z,80.84
2018-09-12T07:29:09.124Z,80.67
2018-09-12T07:31:37.648Z,80.41
2018-09-12T07:34:06.221Z,79.77
2018-09-12T07:36:34.730Z,80.43
2018-09-12T07:39:03.417Z,80.34
2018-09-12T07:41:31.975Z,79.78
2018-09-12T07:44:00.635Z,79.79
2018-09-12T07:46:29.168Z,78.52
2018-09-12T07:48:58.012Z,78.45
2018-09-12T07:51:26.542Z,78.04
2018-09-12T07:53:55.104Z,77.47
2018-09-12T07:56:23.656Z,78.21
2018-09-12T07:58:52.273Z,78.14
2018-09-12T08:01:20.801Z,77.63
2018-09-12T08:03:49.712Z,76.77
2018-09-12T08:06:18.338Z,76.03
2018-09-12T08:08:46.864Z,75.53
2018-09-12T08:11:15.393Z,75.39
2018-09-12T08:13:44.690Z,75.09
2018-09-12T08:16:13.279Z,73.00
2018-09-12T08:18:41.819Z,73.21
2018-09-12T08:21:11.457Z,72.65
2018-09-12T08:23:40.297Z,73.18
2018-09-12T08:26:09.545Z,72.90
2018-09-12T08:28:38.081Z,72.44
2018-09-12T08:31:06.708Z,72.44
2018-09-12T08:33:35.225Z,72.65
2018-09-12T08:36:03.789Z,72.24
2018-09-12T08:38:32.463Z,71.87
2018-09-12T08:41:01.032Z,71.48
2018-09-12T08:43:29.550Z,71.45
2018-09-12T08:45:58.106Z,72.04
2018-09-12T08:48:26.623Z,71.41
2018-09-12T08:50:55.177Z,71.75
2018-09-12T08:53:23.713Z,70.77
2018-09-12T08:55:52.581Z,69.97
2018-09-12T08:58:21.116Z,70.38
2018-09-12T09:00:49.661Z,70.41
2018-09-12T09:03:18.315Z,69.85
2018-09-12T09:05:46.880Z,69.62
2018-09-12T09:08:15.822Z,69.65
2018-09-12T09:10:44.349Z,69.58
2018-09-12T09:13:12.877Z,69.63
2018-09-12T09:15:41.443Z,69.50
2018-09-12T09:18:10.317Z,70.25
2018-09-12T09:20:38.893Z,70.00
2018-09-12T09:23:07.522Z,69.09
2018-09-12T09:25:36.084Z,66.69
2018-09-12T09:28:04.712Z,65.42
2018-09-12T09:30:34.131Z,65.70
2018-09-12T09:33:02.711Z,64.04
2018-09-12T09:35:31.796Z,64.98
2018-09-12T09:38:00.147Z,62.13
2018-09-12T09:40:28.704Z,62.74
2018-09-12T09:42:57.217Z,62.51
2018-09-12T09:45:25.755Z,63.33
2018-09-12T09:47:54.359Z,64.99
2018-09-12T09:50:22.852Z,63.00
2018-09-12T09:52:51.357Z,64.39
2018-09-12T09:55:19.936Z,65.22
2018-09-12T09:57:48.436Z,63.67
2018-09-12T10:00:22.326Z,64.12
2018-09-12T10:02:56.140Z,62.51
2018-09-12T10:05:24.760Z,63.08
2018-09-12T10:08:58.237Z,63.10
2018-09-12T10:11:26.808Z,60.83
2018-09-12T10:13:55.329Z,58.98
2018-09-12T10:16:24.205Z,59.84
2018-09-12T10:18:52.732Z,60.48
2018-09-12T10:21:21.272Z,60.45
2018-09-12T10:23:49.809Z,57.63
2018-09-12T10:26:18.733Z,54.59
2018-09-12T10:28:47.255Z,53.28
2018-09-12T10:31:15.819Z,53.98
2018-09-12T10:33:44.435Z,53.16
2018-09-12T10:36:12.985Z,53.23
2018-09-12T10:38:41.492Z,53.14
2018-09-12T10:41:10.108Z,50.56
2018-09-12T10:43:38.600Z,51.52
2018-09-12T10:46:07.153Z,50.58
2018-09-12T10:48:35.664Z,51.20
2018-09-12T10:51:04.192Z,50.96
2018-09-12T10:53:32.844Z,48.63
2018-09-12T10:56:01.405Z,47.88
2018-09-12T10:58:30.231Z,47.94
2018-09-12T11:00:58.735Z,48.45
2018-09-12T11:03:27.279Z,48.07
2018-09-12T11:05:55.786Z,49.19
2018-09-12T11:08:24.340Z,47.39
2018-09-12T11:10:52.857Z,46.82
2018-09-12T11:13:21.393Z,47.02
2018-09-12T11:15:49.913Z,45.44
2018-09-12T11:18:18.444Z,45.60
2018-09-12T11:20:46.951Z,45.12
2018-09-12T11:23:15.484Z,43.84
2018-09-12T11:25:44.034Z,46.10
2018-09-12T11:28:12.569Z,44.61
2018-09-12T11:30:41.069Z,41.77
2018-09-12T11:33:09.606Z,42.81
2018-09-12T11:35:45.305Z,41.79
2018-09-12T11:38:16.887Z,42.08
2018-09-12T11:40:45.974Z,41.87
2018-09-12T11:43:16.009Z,41.80
2018-09-12T11:45:50.458Z,40.46
2018-09-12T11:48:24.973Z,40.34
2018-09-12T11:50:57.495Z,39.38
2018-09-12T11:53:46.755Z,38.24
2018-09-12T11:56:28.252Z,38.29
2018-09-12T11:58:58.812Z,37.59
2018-09-12T12:01:27.334Z,37.72
2018-09-12T12:03:55.949Z,37.96
2018-09-12T12:06:24.539Z,36.89
2018-09-12T12:08:53.102Z,37.55
2018-09-12T12:11:26.287Z,37.11
2018-09-12T12:13:59.237Z,37.78
2018-09-12T12:16:28.351Z,37.48
2018-09-12T12:19:01.839Z,37.06
2018-09-12T12:21:33.547Z,36.96
2018-09-12T12:24:07.793Z,37.54
2018-09-12T12:26:40.456Z,36.64
2018-09-12T12:29:09.351Z,37.48
2018-09-12T12:31:46.436Z,37.14
2018-09-12T12:34:18.396Z,37.24
2018-09-12T12:36:47.466Z,37.36
2018-09-12T12:39:16.148Z,37.17
2018-09-12T12:41:46.272Z,37.47
2018-09-12T12:44:18.610Z,36.72
2018-09-12T12:46:52.967Z,38.09
2018-09-12T12:49:26.369Z,37.73
2018-09-12T12:51:56.189Z,36.82
2018-09-12T12:54:29.830Z,37.67
2018-09-12T12:57:00.536Z,37.38
2018-09-12T12:59:31.735Z,37.00
2018-09-12T13:02:03.615Z,37.57
2018-09-12T13:04:34.614Z,37.74
2018-09-12T13:07:06.118Z,37.47
2018-09-12T13:09:40.381Z,37.19
2018-09-12T13:12:15.133Z,37.00
2018-09-12T13:14:46.611Z,37.50
2018-09-12T13:17:18.067Z,37.55
2018-09-12T13:19:49.134Z,37.45
2018-09-12T13:22:21.447Z,37.19
2018-09-12T13:24:55.506Z,37.07
2018-09-12T13:27:28.176Z,37.79
2018-09-12T13:29:57.381Z,37.87
2018-09-12T13:32:27.745Z,37.28
2018-09-12T13:35:02.064Z,36.70
2018-09-12T13:37:30.776Z,37.57
2018-09-12T13:40:05.708Z,37.32
2018-09-12T13:42:38.677Z,37.79
2018-09-12T13:45:08.693Z,37.52
2018-09-12T13:47:49.850Z,37.59
2018-09-12T13:50:35.949Z,36.63
2018-09-12T13:53:13.224Z,36.93
2018-09-12T13:55:48.056Z,37.39
2018-09-12T13:58:26.352Z,36.73
2018-09-12T14:00:58.298Z,37.05
2018-09-12T14:03:27.899Z,36.35
2018-09-12T14:06:04.547Z,36.29
2018-09-12T14:08:41.269Z,37.02
2018-09-12T14:11:20.410Z,36.56
2018-09-12T14:13:52.575Z,36.87
2018-09-12T14:16:25.683Z,36.37
2018-09-12T14:19:00.341Z,36.29
2018-09-12T14:21:33.348Z,36.54
2018-09-12T14:24:03.812Z,36.48
2018-09-12T14:26:36.451Z,36.29
2018-09-12T14:29:13.841Z,36.81
2018-09-12T14:31:47.040Z,36.76
2018-09-12T14:34:19.003Z,36.11
2018-09-12T14:36:49.181Z,36.64
2018-09-12T14:39:25.211Z,36.27
2018-09-12T14:41:57.920Z,36.49
2018-09-12T14:44:33.958Z,35.65
2018-09-12T14:47:05.785Z,35.80
2018-09-12T14:49:36.711Z,35.13
2018-09-12T14:52:06.713Z,35.08
2018-09-12T14:54:37.662Z,35.17
2018-09-12T14:57:14.540Z,35.06
2018-09-12T14:59:45.055Z,34.66
2018-09-12T15:02:15.385Z,34.78
2018-09-12T15:04:46.199Z,33.40
2018-09-12T15:07:14.896Z,34.38
2018-09-12T15:09:47.986Z,33.93
2018-09-12T15:12:19.430Z,33.56
2018-09-12T15:14:51.344Z,33.77
2018-09-12T15:17:23.276Z,33.63
2018-09-12T15:19:56.981Z,33.36
2018-09-12T15:22:31.832Z,32.70
2018-09-12T15:25:00.716Z,32.64
2018-09-12T15:27:30.167Z,32.49
2018-09-12T15:29:58.760Z,32.62
2018-09-12T15:32:28.381Z,31.68
2018-09-12T15:34:57.206Z,31.19
2018-09-12T15:37:26.047Z,31.11
2018-09-12T15:39:54.974Z,31.61
2018-09-12T15:42:23.598Z,32.58
2018-09-12T15:44:52.137Z,31.55
2018-09-12T15:47:20.744Z,32.05
2018-09-12T15:49:49.253Z,32.13
2018-09-12T15:52:18.497Z,32.01
2018-09-12T15:54:50.537Z,31.61
2018-09-12T15:57:19.508Z,31.96
2018-09-12T15:59:48.286Z,31.05
2018-09-12T16:02:16.821Z,31.50
2018-09-12T16:04:47.190Z,32.25
2018-09-12T16:07:19.718Z,32.32
2018-09-12T16:09:49.958Z,32.15
2018-09-12T16:12:22.272Z,31.62
2018-09-12T16:14:55.387Z,32.11
2018-09-12T16:17:24.097Z,32.47
2018-09-12T16:19:52.657Z,32.43
2018-09-12T16:22:22.106Z,31.90
2018-09-12T16:24:50.694Z,32.08
2018-09-12T16:27:19.673Z,31.94
2018-09-12T16:29:54.329Z,32.35
2018-09-12T16:32:29.709Z,32.43
2018-09-12T16:35:02.787Z,32.25
2018-09-12T16:37:37.009Z,33.05
2018-09-12T16:40:09.698Z,33.66
2018-09-12T16:42:41.148Z,33.65
2018-09-12T16:45:12.410Z,33.34
2018-09-12T16:47:44.529Z,33.35
2018-09-12T16:50:19.713Z,34.28
2018-09-12T16:52:53.834Z,34.98
2018-09-12T16:55:25.354Z,35.05
2018-09-12T16:57:54.319Z,35.26
2018-09-12T17:00:28.291Z,35.88
2018-09-12T17:03:02.074Z,35.79
2018-09-12T17:05:36.743Z,37.39
2018-09-12T17:08:08.301Z,37.92
2018-09-12T17:10:41.965Z,38.51
2018-09-12T17:13:12.055Z,38.91
2018-09-12T17:15:45.825Z,39.20
2018-09-12T17:18:19.073Z,39.28
2018-09-12T17:20:50.091Z,39.50
2018-09-12T17:23:25.796Z,40.25
2018-09-12T17:25:59.384Z,40.78
2018-09-12T17:28:29.491Z,40.90
2018-09-12T17:31:04.290Z,41.81
2018-09-12T17:33:38.925Z,42.05
2018-09-12T17:36:07.667Z,41.95
2018-09-12T17:38:37.523Z,43.24
2018-09-12T17:41:07.328Z,43.02
2018-09-12T17:43:39.045Z,43.40
2018-09-12T17:46:10.836Z,43.67
2018-09-12T17:48:42.058Z,44.05
2018-09-12T17:51:12.936Z,45.37
2018-09-12T17:53:45.474Z,46.30
2018-09-12T17:56:17.342Z,46.31
2018-09-12T17:58:45.889Z,46.44
2018-09-12T18:01:14.457Z,46.56
2018-09-12T18:03:43.013Z,46.85
2018-09-12T18:06:11.542Z,47.61
2018-09-12T18:08:40.055Z,47.37
2018-09-12T18:11:08.634Z,46.49
2018-09-12T18:13:37.123Z,45.89
2018-09-12T18:16:11.706Z,47.19
2018-09-12T18:18:40.436Z,47.24
2018-09-12T18:21:08.973Z,46.98
2018-09-12T18:23:37.484Z,47.25
2018-09-12T18:26:06.114Z,46.90
2018-09-12T18:28:34.648Z,49.40
2018-09-12T18:31:03.206Z,49.95
2018-09-12T18:33:31.714Z,51.01
2018-09-12T18:36:00.434Z,50.58
2018-09-12T18:38:29.057Z,50.27
2018-09-12T18:40:57.552Z,49.85
2018-09-12T18:43:28.047Z,49.93
2018-09-12T18:45:56.676Z,50.18
2018-09-12T18:48:25.261Z,49.63
2018-09-12T18:50:54.294Z,53.27
2018-09-12T18:53:23.592Z,52.98
2018-09-12T18:55:54.385Z,55.38
2018-09-12T18:58:24.992Z,55.59
2018-09-12T19:00:53.884Z,55.25
2018-09-12T19:03:22.400Z,55.81
2018-09-12T19:08:24.844Z,55.37
2018-09-12T19:10:53.415Z,55.70
2018-09-12T19:13:25.272Z,57.46
2018-09-12T19:16:01.532Z,59.61
2018-09-12T19:18:39.772Z,59.46
2018-09-12T19:21:17.193Z,59.78
2018-09-12T19:23:46.338Z,62.57
2018-09-12T19:26:14.840Z,62.74
2018-09-12T19:28:43.909Z,63.58
2018-09-12T19:31:13.424Z,66.76
2018-09-12T19:33:43.918Z,66.64
2018-09-12T19:36:12.495Z,65.77
2018-09-12T19:38:44.393Z,67.71
2018-09-12T19:41:15.209Z,66.25
2018-09-12T19:43:44.505Z,65.50
2018-09-12T19:46:13.106Z,66.73
2018-09-12T19:48:42.065Z,67.39
2018-09-12T19:51:16.414Z,69.36
2018-09-12T19:53:51.643Z,69.48
2018-09-12T19:56:22.068Z,69.77
2018-09-12T19:58:51.637Z,71.35
2018-09-12T20:01:20.157Z,72.05
2018-09-12T20:03:48.724Z,69.07
2018-09-12T20:06:17.272Z,70.27
2018-09-12T20:08:45.892Z,70.08
2018-09-12T20:11:14.393Z,71.17
2018-09-12T20:13:44.982Z,71.37
2018-09-12T20:16:13.853Z,69.61
2018-09-12T20:18:59.247Z,71.29
2018-09-12T20:21:35.759Z,72.86
2018-09-12T20:24:06.710Z,75.53
2018-09-12T20:26:46.656Z,74.08
2018-09-12T20:29:15.379Z,70.33
2018-09-12T20:31:48.593Z,74.89
2018-09-12T20:34:17.562Z,73.57
2018-09-12T20:36:46.897Z,72.15
2018-09-12T20:39:15.464Z,73.10
2018-09-12T20:41:49.188Z,72.22
2018-09-12T20:44:19.865Z,75.00
2018-09-12T20:46:48.523Z,74.86
2018-09-12T20:49:18.624Z,74.33
2018-09-12T20:51:50.306Z,74.80
2018-09-12T20:54:22.008Z,74.99
2018-09-12T20:56:54.056Z,74.23
2018-09-12T20:59:26.055Z,74.06
2018-09-12T21:01:56.491Z,75.21
2018-09-12T21:04:29.809Z,76.58
2018-09-12T21:07:03.380Z,76.21
2018-09-12T21:09:36.361Z,76.26
2018-09-12T21:12:07.240Z,75.33
2018-09-12T21:14:38.016Z,75.41
2018-09-12T21:17:08.369Z,76.02
2018-09-12T21:19:37.988Z,75.80
2018-09-12T21:22:08.400Z,74.94
2018-09-12T21:24:39.850Z,74.31
2018-09-12T21:27:10.341Z,75.53
2018-09-12T21:29:41.234Z,79.48
2018-09-12T21:32:11.425Z,79.78
2018-09-12T21:34:40.021Z,80.57
2018-09-12T21:37:14.955Z,78.56
2018-09-12T21:39:49.619Z,79.73
2018-09-12T21:43:27.031Z,78.65
2018-09-12T21:46:01.340Z,78.18
2018-09-12T21:48:35.699Z,75.69
2018-09-12T21:51:09.327Z,76.55
2018-09-12T21:53:42.397Z,74.66
2018-09-12T21:56:17.205Z,74.37
2018-09-12T21:58:51.163Z,74.83
2018-09-12T22:01:26.520Z,74.58
2018-09-12T22:04:00.147Z,75.78
2018-09-12T22:06:34.508Z,75.95
2018-09-12T22:09:11.373Z,75.85
2018-09-12T22:11:46.557Z,76.18
2018-09-12T22:14:20.185Z,76.42
2018-09-12T22:16:55.201Z,76.50
2018-09-12T22:19:30.006Z,76.81
2018-09-12T22:22:06.130Z,76.55
2018-09-12T22:24:41.616Z,77.41
2018-09-12T22:27:17.566Z,78.48
2018-09-12T22:29:52.548Z,78.55
2018-09-12T22:32:27.259Z,79.30
2018-09-12T22:35:02.241Z,80.19
2018-09-12T22:37:36.879Z,79.24
2018-09-12T22:40:11.518Z,80.09
2018-09-12T22:42:46.019Z,81.26
2018-09-12T22:45:20.884Z,81.17
2018-09-12T22:47:56.043Z,80.85
2018-09-12T22:50:30.697Z,79.45
2018-09-12T22:53:06.327Z,79.72
2018-09-12T22:55:43.644Z,79.88
2018-09-12T22:58:18.370Z,80.30
2018-09-12T23:00:53.517Z,79.56
2018-09-12T23:03:28.321Z,81.57
2018-09-12T23:06:03.679Z,82.00
2018-09-12T23:08:38.407Z,84.15
2018-09-12T23:11:12.914Z,83.30
2018-09-12T23:13:47.307Z,82.47
2018-09-12T23:16:22.181Z,81.96
2018-09-12T23:18:57.631Z,82.82
2018-09-12T23:21:34.408Z,80.70
2018-09-12T23:24:09.931Z,81.35
2018-09-12T23:26:44.668Z,83.55
2018-09-12T23:29:21.415Z,85.51
2018-09-12T23:31:56.813Z,83.73
2018-09-12T23:34:25.524Z,82.71
2018-09-12T23:36:54.067Z,86.14
2018-09-12T23:39:22.560Z,84.99
2018-09-12T23:41:51.092Z,85.34
2018-09-12T23:44:19.593Z,83.95
2018-09-12T23:46:52.026Z,82.98
2018-09-12T23:49:20.684Z,84.56
2018-09-12T23:51:49.292Z,85.88
2018-09-12T23:54:17.796Z,85.31
2018-09-12T23:56:46.353Z,87.26
2018-09-12T23:59:14.863Z,87.47
